createdAt,value
2018-06-27T00:00:59.520Z,1006.57
2018-06-27T00:01:59.518Z,1006.56
2018-06-27T00:02:59.521Z,1006.54
2018-06-27T00:03:59.524Z,1006.54
2018-06-27T00:04:59.531Z,1006.54
2018-06-27T00:05:59.531Z,1006.55
2018-06-27T00:06:59.532Z,1006.57
2018-06-27T00:07:59.534Z,1006.59
2018-06-27T00:08:59.540Z,1006.56
2018-06-27T00:09:59.541Z,1006.56
2018-06-27T00:10:59.543Z,1006.50
2018-06-27T00:11:59.547Z,1006.54
2018-06-27T00:12:59.549Z,1006.56
2018-06-27T00:13:59.552Z,1006.52
2018-06-27T00:14:59.554Z,1006.54
2018-06-27T00:15:59.559Z,1006.51
2018-06-27T00:16:59.561Z,1006.48
2018-06-27T00:17:59.564Z,1006.54
2018-06-27T00:18:59.567Z,1006.53
2018-06-27T00:19:59.577Z,1006.48
2018-06-27T00:20:59.576Z,1006.47
2018-06-27T00:21:59.578Z,1006.49
2018-06-27T00:22:59.580Z,1006.49
2018-06-27T00:23:59.581Z,1006.49
2018-06-27T00:24:59.584Z,1006.54
2018-06-27T00:25:59.594Z,1006.48
2018-06-27T00:26:59.592Z,1006.49
2018-06-27T00:27:59.594Z,1006.48
2018-06-27T00:28:59.597Z,1006.48
2018-06-27T00:29:59.615Z,1006.55
2018-06-27T00:30:59.602Z,1006.57
2018-06-27T00:31:59.606Z,1006.50
2018-06-27T00:32:59.611Z,1006.58
2018-06-27T00:33:59.632Z,1006.61
2018-06-27T00:34:59.612Z,1006.57
2018-06-27T00:35:59.616Z,1006.56
2018-06-27T00:36:59.625Z,1006.54
2018-06-27T00:37:59.623Z,1006.50
2018-06-27T00:38:59.625Z,1006.52
2018-06-27T00:39:59.630Z,1006.53
2018-06-27T00:40:59.630Z,1006.50
2018-06-27T00:41:59.632Z,1006.52
2018-06-27T00:42:59.636Z,1006.51
2018-06-27T00:43:59.638Z,1006.53
2018-06-27T00:44:59.640Z,1006.54
2018-06-27T00:45:59.645Z,1006.56
2018-06-27T00:46:59.645Z,1006.55
2018-06-27T00:47:59.647Z,1006.57
2018-06-27T00:48:59.649Z,1006.56
2018-06-27T00:49:59.655Z,1006.53
2018-06-27T00:50:59.655Z,1006.52
2018-06-27T00:51:59.657Z,1006.55
2018-06-27T00:52:59.660Z,1006.56
2018-06-27T00:53:59.667Z,1006.57
2018-06-27T00:54:59.663Z,1006.56
2018-06-27T00:55:59.670Z,1006.60
2018-06-27T00:56:59.669Z,1006.59
2018-06-27T00:57:59.672Z,1006.60
2018-06-27T00:58:59.674Z,1006.59
2018-06-27T00:59:59.681Z,1006.57
2018-06-27T01:00:59.678Z,1006.59
2018-06-27T01:01:59.680Z,1006.60
2018-06-27T01:02:59.690Z,1006.56
2018-06-27T01:03:59.684Z,1006.56
2018-06-27T01:04:59.689Z,1006.50
2018-06-27T01:05:59.689Z,1006.51
2018-06-27T01:06:59.694Z,1006.53
2018-06-27T01:07:59.694Z,1006.53
2018-06-27T01:08:59.697Z,1006.51
2018-06-27T01:09:59.698Z,1006.51
2018-06-27T01:10:59.700Z,1006.52
2018-06-27T01:11:59.703Z,1006.53
2018-06-27T01:12:59.706Z,1006.57
2018-06-27T01:13:59.707Z,1006.56
2018-06-27T01:14:59.710Z,1006.55
2018-06-27T01:15:59.712Z,1006.56
2018-06-27T01:16:59.714Z,1006.55
2018-06-27T01:17:59.716Z,1006.60
2018-06-27T01:18:59.717Z,1006.54
2018-06-27T01:19:59.726Z,1006.55
2018-06-27T01:20:59.724Z,1006.59
2018-06-27T01:21:59.725Z,1006.59
2018-06-27T01:22:59.725Z,1006.54
2018-06-27T01:23:59.728Z,1006.54
2018-06-27T01:24:59.736Z,1006.54
2018-06-27T01:25:59.731Z,1006.53
2018-06-27T01:26:59.735Z,1006.58
2018-06-27T01:27:59.739Z,1006.57
2018-06-27T01:28:59.739Z,1006.51
2018-06-27T01:29:59.740Z,1006.53
2018-06-27T01:30:59.744Z,1006.54
2018-06-27T01:31:59.755Z,1006.55
2018-06-27T01:32:59.747Z,1006.55
2018-06-27T01:33:59.750Z,1006.56
2018-06-27T01:34:59.750Z,1006.57
2018-06-27T01:35:59.750Z,1006.56
2018-06-27T01:36:59.754Z,1006.55
2018-06-27T01:37:59.755Z,1006.54
2018-06-27T01:38:59.758Z,1006.53
2018-06-27T01:39:59.759Z,1006.53
2018-06-27T01:40:59.776Z,1006.46
2018-06-27T01:41:59.761Z,1006.53
2018-06-27T01:42:59.764Z,1006.52
2018-06-27T01:43:59.769Z,1006.52
2018-06-27T01:44:59.770Z,1006.60
2018-06-27T01:45:59.770Z,1006.53
2018-06-27T01:46:59.771Z,1006.58
2018-06-27T01:47:59.774Z,1006.55
2018-06-27T01:48:59.775Z,1006.60
2018-06-27T01:49:59.778Z,1006.59
2018-06-27T01:50:59.779Z,1006.62
2018-06-27T01:51:59.780Z,1006.61
2018-06-27T01:52:59.783Z,1006.64
2018-06-27T01:53:59.783Z,1006.65
2018-06-27T01:54:59.786Z,1006.66
2018-06-27T01:55:59.786Z,1006.69
2018-06-27T01:56:59.789Z,1006.66
2018-06-27T01:57:59.794Z,1006.65
2018-06-27T01:58:59.793Z,1006.67
2018-06-27T01:59:59.798Z,1006.65
2018-06-27T02:00:59.796Z,1006.64
2018-06-27T02:01:59.797Z,1006.66
2018-06-27T02:02:59.804Z,1006.69
2018-06-27T02:03:59.803Z,1006.63
2018-06-27T02:04:59.803Z,1006.66
2018-06-27T02:05:59.804Z,1006.66
2018-06-27T02:06:59.807Z,1006.63
2018-06-27T02:07:59.819Z,1006.66
2018-06-27T02:08:59.809Z,1006.66
2018-06-27T02:09:59.811Z,1006.63
2018-06-27T02:10:59.820Z,1006.63
2018-06-27T02:11:59.821Z,1006.59
2018-06-27T02:12:59.817Z,1006.61
2018-06-27T02:13:59.824Z,1006.62
2018-06-27T02:14:59.826Z,1006.64
2018-06-27T02:15:59.820Z,1006.62
2018-06-27T02:16:59.822Z,1006.62
2018-06-27T02:17:59.833Z,1006.63
2018-06-27T02:18:59.827Z,1006.61
2018-06-27T02:19:59.833Z,1006.60
2018-06-27T02:20:59.828Z,1006.62
2018-06-27T02:21:59.830Z,1006.55
2018-06-27T02:22:59.832Z,1006.58
2018-06-27T02:23:59.839Z,1006.54
2018-06-27T02:24:59.835Z,1006.56
2018-06-27T02:25:59.837Z,1006.56
2018-06-27T02:26:59.837Z,1006.54
2018-06-27T02:27:59.840Z,1006.55
2018-06-27T02:28:59.843Z,1006.54
2018-06-27T02:29:59.844Z,1006.58
2018-06-27T02:30:59.860Z,1006.59
2018-06-27T02:31:59.852Z,1006.60
2018-06-27T02:32:59.848Z,1006.60
2018-06-27T02:33:59.853Z,1006.58
2018-06-27T02:34:59.860Z,1006.57
2018-06-27T02:35:59.852Z,1006.56
2018-06-27T02:36:59.865Z,1006.59
2018-06-27T02:37:59.874Z,1006.55
2018-06-27T02:38:59.857Z,1006.61
2018-06-27T02:39:59.858Z,1006.61
2018-06-27T02:40:59.863Z,1006.67
2018-06-27T02:41:59.863Z,1006.63
2018-06-27T02:42:59.865Z,1006.67
2018-06-27T02:43:59.865Z,1006.66
2018-06-27T02:44:59.877Z,1006.67
2018-06-27T02:45:59.867Z,1006.66
2018-06-27T02:46:59.868Z,1006.66
2018-06-27T02:47:59.871Z,1006.65
2018-06-27T02:48:59.873Z,1006.63
2018-06-27T02:49:59.873Z,1006.64
2018-06-27T02:50:59.877Z,1006.61
2018-06-27T02:51:59.877Z,1006.66
2018-06-27T02:52:59.882Z,1006.67
2018-06-27T02:53:59.886Z,1006.70
2018-06-27T02:54:59.880Z,1006.73
2018-06-27T02:55:59.882Z,1006.75
2018-06-27T02:56:59.884Z,1006.76
2018-06-27T02:57:59.885Z,1006.81
2018-06-27T02:58:59.886Z,1006.77
2018-06-27T02:59:59.887Z,1006.78
2018-06-27T03:00:59.889Z,1006.78
2018-06-27T03:01:59.894Z,1006.81
2018-06-27T03:02:59.891Z,1006.84
2018-06-27T03:03:59.892Z,1006.84
2018-06-27T03:04:59.894Z,1006.84
2018-06-27T03:05:59.895Z,1006.82
2018-06-27T03:06:59.897Z,1006.86
2018-06-27T03:07:59.898Z,1006.88
2018-06-27T03:08:59.900Z,1006.91
2018-06-27T03:09:59.900Z,1006.87
2018-06-27T03:10:59.903Z,1006.87
2018-06-27T03:11:59.903Z,1006.91
2018-06-27T03:12:59.906Z,1006.92
2018-06-27T03:13:59.907Z,1006.94
2018-06-27T03:14:59.908Z,1006.88
2018-06-27T03:15:59.912Z,1006.94
2018-06-27T03:16:59.912Z,1006.94
2018-06-27T03:17:59.913Z,1006.96
2018-06-27T03:18:59.911Z,1006.95
2018-06-27T03:19:59.912Z,1006.98
2018-06-27T03:20:59.914Z,1006.99
2018-06-27T03:21:59.915Z,1007.01
2018-06-27T03:22:59.916Z,1006.96
2018-06-27T03:23:59.917Z,1006.97
2018-06-27T03:24:59.919Z,1006.97
2018-06-27T03:25:59.922Z,1006.98
2018-06-27T03:26:59.926Z,1007.01
2018-06-27T03:27:59.922Z,1006.98
2018-06-27T03:28:59.924Z,1006.99
2018-06-27T03:29:59.961Z,1007.02
2018-06-27T03:30:59.926Z,1007.03
2018-06-27T03:31:59.931Z,1006.95
2018-06-27T03:32:59.928Z,1007.02
2018-06-27T03:33:59.929Z,1007.06
2018-06-27T03:34:59.935Z,1007.03
2018-06-27T03:35:59.932Z,1007.00
2018-06-27T03:36:59.935Z,1007.00
2018-06-27T03:37:59.934Z,1007.04
2018-06-27T03:38:59.944Z,1007.00
2018-06-27T03:39:59.939Z,1007.02
2018-06-27T03:40:59.938Z,1006.99
2018-06-27T03:41:59.938Z,1007.01
2018-06-27T03:42:59.940Z,1007.02
2018-06-27T03:43:59.949Z,1007.01
2018-06-27T03:44:59.944Z,1006.98
2018-06-27T03:45:59.945Z,1006.98
2018-06-27T03:46:59.946Z,1006.99
2018-06-27T03:47:59.950Z,1007.02
2018-06-27T03:48:59.992Z,1007.02
2018-06-27T03:49:59.951Z,1007.03
2018-06-27T03:50:59.951Z,1007.05
2018-06-27T03:51:59.952Z,1007.06
2018-06-27T03:52:59.952Z,1007.06
2018-06-27T03:53:59.960Z,1007.04
2018-06-27T03:54:59.959Z,1007.09
2018-06-27T03:55:59.969Z,1007.05
2018-06-27T03:57:00.018Z,1007.09
2018-06-27T03:57:59.960Z,1007.10
2018-06-27T03:58:59.987Z,1007.07
2018-06-27T03:59:59.963Z,1007.11
2018-06-27T04:00:59.963Z,1007.13
2018-06-27T04:01:59.964Z,1007.08
2018-06-27T04:02:59.966Z,1007.11
2018-06-27T04:03:59.969Z,1007.10
2018-06-27T04:04:59.969Z,1007.13
2018-06-27T04:05:59.970Z,1007.07
2018-06-27T04:06:59.973Z,1007.14
2018-06-27T04:07:59.972Z,1007.15
2018-06-27T04:08:59.973Z,1007.13
2018-06-27T04:09:59.986Z,1007.16
2018-06-27T04:10:59.974Z,1007.13
2018-06-27T04:11:59.978Z,1007.18
2018-06-27T04:13:00.100Z,1007.16
2018-06-27T04:13:59.982Z,1007.13
2018-06-27T04:14:59.980Z,1007.17
2018-06-27T04:16:00.000Z,1007.15
2018-06-27T04:16:59.982Z,1007.14
2018-06-27T04:17:59.993Z,1007.18
2018-06-27T04:18:59.984Z,1007.17
2018-06-27T04:19:59.996Z,1007.20
2018-06-27T04:20:59.993Z,1007.18
2018-06-27T04:21:59.987Z,1007.17
2018-06-27T04:22:59.987Z,1007.19
2018-06-27T04:23:59.988Z,1007.15
2018-06-27T04:24:59.995Z,1007.19
2018-06-27T04:25:59.994Z,1007.15
2018-06-27T04:26:59.992Z,1007.14
2018-06-27T04:27:59.994Z,1007.18
2018-06-27T04:28:59.997Z,1007.18
2018-06-27T04:29:59.997Z,1007.17
2018-06-27T04:30:59.995Z,1007.20
2018-06-27T04:31:59.997Z,1007.23
2018-06-27T04:32:59.999Z,1007.20
2018-06-27T04:34:00.018Z,1007.19
2018-06-27T04:35:00.001Z,1007.20
2018-06-27T04:36:00.037Z,1007.22
2018-06-27T04:37:00.007Z,1007.24
2018-06-27T04:38:00.014Z,1007.23
2018-06-27T04:39:00.011Z,1007.23
2018-06-27T04:40:00.017Z,1007.22
2018-06-27T04:41:00.011Z,1007.18
2018-06-27T04:42:00.013Z,1007.21
2018-06-27T04:43:00.018Z,1007.18
2018-06-27T04:44:00.022Z,1007.22
2018-06-27T04:45:00.017Z,1007.25
2018-06-27T04:46:00.018Z,1007.26
2018-06-27T04:47:00.016Z,1007.28
2018-06-27T04:48:00.022Z,1007.24
2018-06-27T04:49:00.020Z,1007.25
2018-06-27T04:50:00.028Z,1007.26
2018-06-27T04:51:00.027Z,1007.22
2018-06-27T04:52:00.026Z,1007.25
2018-06-27T04:53:00.026Z,1007.29
2018-06-27T04:54:00.031Z,1007.28
2018-06-27T04:55:00.060Z,1007.27
2018-06-27T04:56:00.027Z,1007.29
2018-06-27T04:57:00.029Z,1007.32
2018-06-27T04:58:00.046Z,1007.34
2018-06-27T04:59:00.029Z,1007.39
2018-06-27T05:00:00.040Z,1007.34
2018-06-27T05:01:00.060Z,1007.35
2018-06-27T05:02:00.045Z,1007.35
2018-06-27T05:03:00.039Z,1007.41
2018-06-27T05:04:00.038Z,1007.37
2018-06-27T05:05:00.040Z,1007.37
2018-06-27T05:06:00.042Z,1007.39
2018-06-27T05:07:00.041Z,1007.39
2018-06-27T05:08:00.046Z,1007.37
2018-06-27T05:09:00.079Z,1007.39
2018-06-27T05:10:00.051Z,1007.39
2018-06-27T05:11:00.049Z,1007.41
2018-06-27T05:12:00.051Z,1007.41
2018-06-27T05:13:00.051Z,1007.42
2018-06-27T05:14:00.089Z,1007.40
2018-06-27T05:15:00.086Z,1007.40
2018-06-27T05:16:00.118Z,1007.43
2018-06-27T05:17:00.056Z,1007.43
2018-06-27T05:18:00.054Z,1007.41
2018-06-27T05:19:00.057Z,1007.46
2018-06-27T05:20:00.064Z,1007.41
2018-06-27T05:21:00.063Z,1007.43
2018-06-27T05:22:00.066Z,1007.43
2018-06-27T05:23:00.066Z,1007.39
2018-06-27T05:24:00.066Z,1007.41
2018-06-27T05:25:00.068Z,1007.42
2018-06-27T05:26:00.073Z,1007.41
2018-06-27T05:27:00.125Z,1007.44
2018-06-27T05:28:00.092Z,1007.41
2018-06-27T05:29:00.080Z,1007.41
2018-06-27T05:30:00.098Z,1007.43
2018-06-27T05:31:00.123Z,1007.45
2018-06-27T05:32:00.087Z,1007.47
2018-06-27T05:33:00.092Z,1007.49
2018-06-27T05:34:00.179Z,1007.44
2018-06-27T05:35:00.099Z,1007.42
2018-06-27T05:36:00.107Z,1007.51
2018-06-27T05:37:00.109Z,1007.50
2018-06-27T05:38:00.119Z,1007.53
2018-06-27T05:39:00.110Z,1007.53
2018-06-27T05:40:00.115Z,1007.60
2018-06-27T05:41:00.120Z,1007.54
2018-06-27T05:42:00.118Z,1007.60
2018-06-27T05:43:00.132Z,1007.61
2018-06-27T05:44:00.145Z,1007.66
2018-06-27T05:45:00.149Z,1007.66
2018-06-27T05:46:00.133Z,1007.68
2018-06-27T05:47:00.137Z,1007.62
2018-06-27T05:48:00.143Z,1007.61
2018-06-27T05:49:00.159Z,1007.60
2018-06-27T05:50:00.168Z,1007.65
2018-06-27T05:51:00.167Z,1007.66
2018-06-27T05:52:00.154Z,1007.63
2018-06-27T05:53:00.156Z,1007.68
2018-06-27T05:54:00.160Z,1007.67
2018-06-27T05:55:00.161Z,1007.69
2018-06-27T05:56:00.174Z,1007.69
2018-06-27T05:57:00.167Z,1007.68
2018-06-27T05:58:00.198Z,1007.68
2018-06-27T05:59:00.172Z,1007.68
2018-06-27T06:00:00.186Z,1007.68
2018-06-27T06:01:00.178Z,1007.69
2018-06-27T06:02:00.180Z,1007.72
2018-06-27T06:03:00.188Z,1007.76
2018-06-27T06:04:00.262Z,1007.76
2018-06-27T06:05:00.189Z,1007.76
2018-06-27T06:06:00.196Z,1007.79
2018-06-27T06:07:00.227Z,1007.82
2018-06-27T06:08:00.198Z,1007.76
2018-06-27T06:09:00.208Z,1007.76
2018-06-27T06:10:00.284Z,1007.77
2018-06-27T06:11:00.211Z,1007.77
2018-06-27T06:12:00.211Z,1007.81
2018-06-27T06:13:00.214Z,1007.82
2018-06-27T06:14:00.215Z,1007.83
2018-06-27T06:15:00.221Z,1007.81
2018-06-27T06:16:00.240Z,1007.88
2018-06-27T06:17:00.223Z,1007.87
2018-06-27T06:18:00.227Z,1007.84
2018-06-27T06:19:00.231Z,1007.94
2018-06-27T06:20:00.235Z,1007.92
2018-06-27T06:21:00.236Z,1007.94
2018-06-27T06:22:00.239Z,1008.00
2018-06-27T06:23:00.240Z,1007.97
2018-06-27T06:24:00.244Z,1007.95
2018-06-27T06:25:00.245Z,1008.01
2018-06-27T06:26:00.260Z,1008.04
2018-06-27T06:27:00.249Z,1008.00
2018-06-27T06:28:00.252Z,1008.07
2018-06-27T06:29:00.258Z,1008.07
2018-06-27T06:30:00.264Z,1008.08
2018-06-27T06:31:00.261Z,1008.11
2018-06-27T06:32:00.285Z,1008.07
2018-06-27T06:33:00.272Z,1008.03
2018-06-27T06:34:00.262Z,1008.04
2018-06-27T06:35:00.286Z,1008.02
2018-06-27T06:36:00.266Z,1008.04
2018-06-27T06:37:00.268Z,1008.04
2018-06-27T06:38:00.269Z,1008.09
2018-06-27T06:39:00.271Z,1008.10
2018-06-27T06:40:00.276Z,1008.13
2018-06-27T06:41:00.275Z,1008.11
2018-06-27T06:42:00.279Z,1008.12
2018-06-27T06:43:00.294Z,1008.12
2018-06-27T06:44:00.290Z,1008.09
2018-06-27T06:45:00.284Z,1008.13
2018-06-27T06:46:00.347Z,1008.16
2018-06-27T06:47:00.287Z,1008.17
2018-06-27T06:48:00.289Z,1008.22
2018-06-27T06:49:02.219Z,1008.17
2018-06-27T06:50:00.293Z,1008.18
2018-06-27T06:51:00.293Z,1008.16
2018-06-27T06:52:00.302Z,1008.12
2018-06-27T06:53:00.315Z,1008.19
2018-06-27T06:54:00.298Z,1008.14
2018-06-27T06:55:00.306Z,1008.18
2018-06-27T06:56:00.344Z,1008.18
2018-06-27T06:57:00.304Z,1008.19
2018-06-27T06:58:01.276Z,1008.18
2018-06-27T06:59:00.367Z,1008.19
2018-06-27T07:00:00.308Z,1008.18
2018-06-27T07:01:00.311Z,1008.20
2018-06-27T07:02:00.313Z,1008.19
2018-06-27T07:03:00.354Z,1008.20
2018-06-27T07:04:00.315Z,1008.20
2018-06-27T07:05:00.340Z,1008.20
2018-06-27T07:06:00.326Z,1008.23
2018-06-27T07:07:00.325Z,1008.24
2018-06-27T07:08:00.323Z,1008.20
2018-06-27T07:09:00.328Z,1008.26
2018-06-27T07:10:00.326Z,1008.21
2018-06-27T07:11:00.401Z,1008.20
2018-06-27T07:12:00.334Z,1008.24
2018-06-27T07:13:00.338Z,1008.25
2018-06-27T07:14:00.335Z,1008.23
2018-06-27T07:15:00.341Z,1008.19
2018-06-27T07:16:00.344Z,1008.20
2018-06-27T07:17:00.345Z,1008.16
2018-06-27T07:18:00.344Z,1008.18
2018-06-27T07:19:00.349Z,1008.17
2018-06-27T07:20:00.349Z,1008.17
2018-06-27T07:21:00.350Z,1008.24
2018-06-27T07:22:00.351Z,1008.22
2018-06-27T07:23:00.356Z,1008.19
2018-06-27T07:24:00.357Z,1008.22
2018-06-27T07:25:00.360Z,1008.20
2018-06-27T07:26:00.362Z,1008.23
2018-06-27T07:27:00.401Z,1008.21
2018-06-27T07:28:00.367Z,1008.23
2018-06-27T07:29:00.369Z,1008.21
2018-06-27T07:30:00.424Z,1008.25
2018-06-27T07:31:00.380Z,1008.22
2018-06-27T07:32:00.376Z,1008.28
2018-06-27T07:33:00.393Z,1008.25
2018-06-27T07:34:00.380Z,1008.29
2018-06-27T07:35:00.382Z,1008.31
2018-06-27T07:36:00.436Z,1008.26
2018-06-27T07:37:00.388Z,1008.23
2018-06-27T07:38:00.390Z,1008.25
2018-06-27T07:39:00.399Z,1008.22
2018-06-27T07:40:00.394Z,1008.24
2018-06-27T07:41:00.398Z,1008.23
2018-06-27T07:42:00.402Z,1008.20
2018-06-27T07:43:00.404Z,1008.23
2018-06-27T07:44:00.407Z,1008.24
2018-06-27T07:45:00.409Z,1008.20
2018-06-27T07:46:00.410Z,1008.22
2018-06-27T07:47:00.413Z,1008.19
2018-06-27T07:48:00.418Z,1008.18
2018-06-27T07:49:00.418Z,1008.15
2018-06-27T07:50:00.425Z,1008.16
2018-06-27T07:51:00.424Z,1008.12
2018-06-27T07:52:00.427Z,1008.15
2018-06-27T07:53:00.428Z,1008.11
2018-06-27T07:54:00.447Z,1008.15
2018-06-27T07:55:00.450Z,1008.12
2018-06-27T07:56:00.437Z,1008.16
2018-06-27T07:57:00.444Z,1008.16
2018-06-27T07:58:00.454Z,1008.13
2018-06-27T07:59:00.445Z,1008.20
2018-06-27T08:00:00.450Z,1008.15
2018-06-27T08:01:00.464Z,1008.17
2018-06-27T08:02:00.461Z,1008.21
2018-06-27T08:03:00.467Z,1008.16
2018-06-27T08:04:00.453Z,1008.14
2018-06-27T08:05:00.463Z,1008.14
2018-06-27T08:06:00.542Z,1008.14
2018-06-27T08:07:00.477Z,1008.14
2018-06-27T08:08:00.470Z,1008.14
2018-06-27T08:09:00.471Z,1008.12
2018-06-27T08:10:00.474Z,1008.10
2018-06-27T08:11:00.479Z,1008.14
2018-06-27T08:12:00.480Z,1008.09
2018-06-27T08:13:00.492Z,1008.11
2018-06-27T08:14:00.485Z,1008.09
2018-06-27T08:15:00.488Z,1008.10
2018-06-27T08:16:00.503Z,1008.06
2018-06-27T08:17:00.495Z,1008.09
2018-06-27T08:18:00.675Z,1008.08
2018-06-27T08:19:00.518Z,1008.07
2018-06-27T08:20:00.502Z,1008.07
2018-06-27T08:21:00.557Z,1008.00
2018-06-27T08:22:00.505Z,1008.04
2018-06-27T08:23:00.514Z,1008.03
2018-06-27T08:24:00.511Z,1008.08
2018-06-27T08:25:00.516Z,1008.05
2018-06-27T08:26:00.584Z,1008.05
2018-06-27T08:27:00.519Z,1008.07
2018-06-27T08:28:00.523Z,1008.03
2018-06-27T08:29:00.524Z,1008.03
2018-06-27T08:30:00.527Z,1008.04
2018-06-27T08:31:00.530Z,1008.04
2018-06-27T08:32:00.531Z,1008.01
2018-06-27T08:33:00.533Z,1008.05
2018-06-27T08:34:00.533Z,1008.06
2018-06-27T08:35:00.555Z,1008.07
2018-06-27T08:36:00.543Z,1008.05
2018-06-27T08:37:00.549Z,1008.06
2018-06-27T08:38:00.614Z,1008.10
2018-06-27T08:39:00.552Z,1008.09
2018-06-27T08:40:00.553Z,1008.12
2018-06-27T08:41:00.825Z,1008.12
2018-06-27T08:42:00.569Z,1008.05
2018-06-27T08:43:00.573Z,1008.09
2018-06-27T08:44:00.576Z,1008.08
2018-06-27T08:45:00.577Z,1008.10
2018-06-27T08:46:00.581Z,1008.07
2018-06-27T08:47:00.580Z,1008.10
2018-06-27T08:48:00.583Z,1008.06
2018-06-27T08:49:00.605Z,1008.09
2018-06-27T08:50:00.619Z,1008.13
2018-06-27T08:51:00.595Z,1008.12
2018-06-27T08:52:00.600Z,1008.11
2018-06-27T08:53:00.604Z,1008.10
2018-06-27T08:54:00.618Z,1008.13
2018-06-27T08:55:00.610Z,1008.07
2018-06-27T08:56:00.617Z,1008.05
2018-06-27T08:57:00.617Z,1008.08
2018-06-27T08:58:00.622Z,1008.03
2018-06-27T08:59:00.638Z,1008.11
2018-06-27T09:00:00.630Z,1008.11
2018-06-27T09:01:00.635Z,1008.12
2018-06-27T09:02:00.643Z,1008.13
2018-06-27T09:03:00.643Z,1008.09
2018-06-27T09:04:00.651Z,1008.15
2018-06-27T09:05:00.663Z,1008.08
2018-06-27T09:06:00.657Z,1008.08
2018-06-27T09:07:00.662Z,1008.10
2018-06-27T09:08:00.694Z,1008.05
2018-06-27T09:09:00.674Z,1008.02
2018-06-27T09:10:00.676Z,1008.05
2018-06-27T09:11:00.795Z,1008.03
2018-06-27T09:12:00.690Z,1008.01
2018-06-27T09:13:00.699Z,1008.15
2018-06-27T09:14:00.701Z,1008.10
2018-06-27T09:15:00.711Z,1008.11
2018-06-27T09:16:00.718Z,1008.05
2018-06-27T09:17:00.716Z,1008.07
2018-06-27T09:18:00.725Z,1008.09
2018-06-27T09:19:00.729Z,1008.08
2018-06-27T09:20:00.735Z,1008.04
2018-06-27T09:21:00.849Z,1008.07
2018-06-27T09:22:00.906Z,1008.05
2018-06-27T09:23:00.757Z,1008.05
2018-06-27T09:24:00.763Z,1008.11
2018-06-27T09:25:00.768Z,1008.06
2018-06-27T09:26:00.775Z,1008.05
2018-06-27T09:27:00.785Z,1008.11
2018-06-27T09:28:00.789Z,1008.08
2018-06-27T09:29:00.804Z,1008.14
2018-06-27T09:30:00.805Z,1008.11
2018-06-27T09:31:00.810Z,1008.11
2018-06-27T09:32:00.818Z,1008.13
2018-06-27T09:33:00.830Z,1008.18
2018-06-27T09:34:00.839Z,1008.20
2018-06-27T09:35:00.842Z,1008.11
2018-06-27T09:36:00.850Z,1008.18
2018-06-27T09:37:00.859Z,1008.20
2018-06-27T09:38:00.866Z,1008.15
2018-06-27T09:39:01.052Z,1008.19
2018-06-27T09:40:00.883Z,1008.19
2018-06-27T09:41:00.896Z,1008.21
2018-06-27T09:42:00.955Z,1008.16
2018-06-27T09:43:00.907Z,1008.14
2018-06-27T09:44:00.912Z,1008.18
2018-06-27T09:45:00.919Z,1008.20
2018-06-27T09:46:00.940Z,1008.17
2018-06-27T09:47:00.936Z,1008.18
2018-06-27T09:48:00.996Z,1008.24
2018-06-27T09:49:00.986Z,1008.13
2018-06-27T09:50:00.964Z,1008.12
2018-06-27T09:51:00.966Z,1008.10
2018-06-27T09:52:00.975Z,1008.10
2018-06-27T09:53:00.982Z,1008.14
2018-06-27T09:54:01.005Z,1008.11
2018-06-27T09:55:01.007Z,1008.17
2018-06-27T09:56:01.008Z,1008.06
2018-06-27T09:57:01.036Z,1008.07
2018-06-27T09:58:01.026Z,1008.03
2018-06-27T09:59:01.033Z,1008.05
2018-06-27T10:00:01.042Z,1008.04
2018-06-27T10:01:01.056Z,1008.04
2018-06-27T10:02:01.107Z,1008.08
2018-06-27T10:03:01.068Z,1008.13
2018-06-27T10:04:01.078Z,1008.15
2018-06-27T10:05:01.085Z,1008.15
2018-06-27T10:06:01.092Z,1008.24
2018-06-27T10:07:01.101Z,1008.21
2018-06-27T10:08:01.108Z,1008.15
2018-06-27T10:09:01.139Z,1008.13
2018-06-27T10:10:01.647Z,1008.17
2018-06-27T10:11:01.336Z,1008.14
2018-06-27T10:12:01.535Z,1008.13
2018-06-27T10:13:01.144Z,1008.09
2018-06-27T10:14:01.277Z,1008.14
2018-06-27T10:15:01.164Z,1008.15
2018-06-27T10:16:01.165Z,1008.18
2018-06-27T10:17:01.242Z,1008.14
2018-06-27T10:18:01.215Z,1008.09
2018-06-27T10:19:01.186Z,1008.10
2018-06-27T10:20:01.195Z,1008.09
2018-06-27T10:21:01.202Z,1008.14
2018-06-27T10:22:01.266Z,1008.06
2018-06-27T10:23:01.219Z,1008.15
2018-06-27T10:24:01.238Z,1008.10
2018-06-27T10:25:01.232Z,1008.05
2018-06-27T10:26:01.240Z,1008.07
2018-06-27T10:27:01.251Z,1008.11
2018-06-27T10:28:01.251Z,1008.11
2018-06-27T10:29:01.262Z,1008.18
2018-06-27T10:30:01.288Z,1008.09
2018-06-27T10:31:01.286Z,1008.02
2018-06-27T10:32:01.290Z,1008.10
2018-06-27T10:33:01.287Z,1008.04
2018-06-27T10:34:01.292Z,1008.02
2018-06-27T10:35:01.305Z,1008.04
2018-06-27T10:36:01.307Z,1008.02
2018-06-27T10:37:01.311Z,1008.00
2018-06-27T10:38:01.317Z,1007.97
2018-06-27T10:39:01.338Z,1008.00
2018-06-27T10:40:01.331Z,1007.99
2018-06-27T10:41:01.370Z,1007.95
2018-06-27T10:42:01.344Z,1007.94
2018-06-27T10:43:02.234Z,1007.99
2018-06-27T10:44:01.527Z,1007.98
2018-06-27T10:45:01.361Z,1008.03
2018-06-27T10:46:01.383Z,1008.00
2018-06-27T10:47:01.378Z,1007.94
2018-06-27T10:48:01.608Z,1007.92
2018-06-27T10:49:01.388Z,1007.85
2018-06-27T10:50:01.402Z,1007.81
2018-06-27T10:51:01.402Z,1007.84
2018-06-27T10:52:01.414Z,1007.82
2018-06-27T10:53:01.499Z,1007.96
2018-06-27T10:54:01.451Z,1007.85
2018-06-27T10:55:01.439Z,1007.88
2018-06-27T10:56:01.441Z,1007.92
2018-06-27T10:57:01.447Z,1007.83
2018-06-27T10:58:01.573Z,1007.84
2018-06-27T10:59:01.466Z,1007.83
2018-06-27T11:00:01.486Z,1007.81
2018-06-27T11:01:01.527Z,1007.84
2018-06-27T11:02:01.494Z,1007.87
2018-06-27T11:03:01.488Z,1007.85
2018-06-27T11:04:01.495Z,1007.76
2018-06-27T11:05:01.530Z,1007.81
2018-06-27T11:06:01.510Z,1007.84
2018-06-27T11:07:01.517Z,1007.79
2018-06-27T11:08:01.524Z,1007.82
2018-06-27T11:09:01.531Z,1007.75
2018-06-27T11:10:01.537Z,1007.83
2018-06-27T11:11:01.544Z,1007.84
2018-06-27T11:12:01.552Z,1007.81
2018-06-27T11:13:01.573Z,1007.84
2018-06-27T11:14:01.625Z,1007.79
2018-06-27T11:15:01.569Z,1007.78
2018-06-27T11:16:01.579Z,1007.81
2018-06-27T11:17:01.585Z,1007.70
2018-06-27T11:18:01.668Z,1007.69
2018-06-27T11:19:01.599Z,1007.66
2018-06-27T11:20:01.606Z,1007.67
2018-06-27T11:21:01.641Z,1007.68
2018-06-27T11:22:01.747Z,1007.66
2018-06-27T11:23:01.652Z,1007.63
2018-06-27T11:24:01.786Z,1007.58
2018-06-27T11:25:01.823Z,1007.60
2018-06-27T11:26:01.729Z,1007.65
2018-06-27T11:27:01.736Z,1007.63
2018-06-27T11:28:01.679Z,1007.69
2018-06-27T11:29:01.676Z,1007.67
2018-06-27T11:30:01.682Z,1007.63
2018-06-27T11:31:01.688Z,1007.64
2018-06-27T11:32:01.698Z,1007.54
2018-06-27T11:33:01.705Z,1007.59
2018-06-27T11:34:01.712Z,1007.62
2018-06-27T11:35:01.719Z,1007.63
2018-06-27T11:36:01.729Z,1007.62
2018-06-27T11:37:01.737Z,1007.57
2018-06-27T11:38:01.750Z,1007.59
2018-06-27T11:39:01.751Z,1007.63
2018-06-27T11:40:01.759Z,1007.66
2018-06-27T11:41:01.789Z,1007.66
2018-06-27T11:42:01.979Z,1007.59
2018-06-27T11:43:01.781Z,1007.66
2018-06-27T11:44:01.791Z,1007.68
2018-06-27T11:45:01.799Z,1007.62
2018-06-27T11:46:01.824Z,1007.55
2018-06-27T11:47:01.815Z,1007.63
2018-06-27T11:48:01.823Z,1007.60
2018-06-27T11:49:01.830Z,1007.54
2018-06-27T11:50:01.906Z,1007.51
2018-06-27T11:51:01.863Z,1007.48
2018-06-27T11:52:01.856Z,1007.57
2018-06-27T11:53:01.862Z,1007.51
2018-06-27T11:54:01.880Z,1007.52
2018-06-27T11:55:01.893Z,1007.64
2018-06-27T11:56:01.894Z,1007.52
2018-06-27T11:57:01.891Z,1007.63
2018-06-27T11:58:01.896Z,1007.64
2018-06-27T11:59:01.908Z,1007.61
2018-06-27T12:00:01.913Z,1007.55
2018-06-27T12:01:01.917Z,1007.57
2018-06-27T12:02:01.925Z,1007.59
2018-06-27T12:03:02.208Z,1007.52
2018-06-27T12:04:01.936Z,1007.58
2018-06-27T12:05:01.941Z,1007.62
2018-06-27T12:06:01.947Z,1007.62